Time;durP1;ratioP1;P1;durP2;ratioP2;P2;SDS_P1;SDS_P2;PMS_P1;PMS_P2;Temp;Humidity;BMP_temperature;BMP_pressure;BME280_temperature;BME280_humidity;BME280_pressure;Samples;Min_cycle;Max_cycle;Signal;HPM_P1;HPM_P2
2023/01/25 00:01:51;;;;;;;1602.07;844.15;;;1.80;99.90;;;;;;5096222;28;20060;-69
2023/01/25 00:04:18;;;;;;;767.33;719.95;;;1.70;99.90;;;;;;5094090;28;20481;-68
2023/01/25 00:06:44;;;;;;;1130.28;836.97;;;1.70;99.90;;;;;;5093088;28;20039;-68
2023/01/25 00:09:10;;;;;;;701.88;658.20;;;1.70;99.90;;;;;;5093428;28;20386;-69
2023/01/25 00:11:36;;;;;;;885.80;824.92;;;1.80;99.90;;;;;;5096667;28;20028;-69
2023/01/25 00:14:03;;;;;;;842.72;789.65;;;1.80;99.90;;;;;;5086188;28;20030;-68
2023/01/25 00:16:29;;;;;;;771.85;723.83;;;1.80;99.90;;;;;;5103943;28;20069;-68
2023/01/25 00:18:54;;;;;;;813.00;762.00;;;1.90;99.90;;;;;;5099430;28;20023;-69
2023/01/25 00:21:22;;;;;;;894.85;836.25;;;1.80;99.90;;;;;;5098514;28;20100;-68
2023/01/25 00:23:48;;;;;;;619.45;588.10;;;1.80;99.90;;;;;;5101158;28;20039;-68
2023/01/25 00:26:14;;;;;;;574.00;545.15;;;1.80;99.90;;;;;;5093423;28;20027;-69
2023/01/25 00:28:40;;;;;;;776.15;730.22;;;1.60;99.90;;;;;;5100867;28;20034;-67
2023/01/25 00:31:08;;;;;;;657.30;622.58;;;1.60;99.90;;;;;;5091592;28;20032;-69
2023/01/25 00:33:34;;;;;;;522.17;498.05;;;1.70;99.90;;;;;;5099428;28;20086;-69
2023/01/25 00:36:00;;;;;;;739.55;695.00;;;1.70;99.90;;;;;;5099268;28;20036;-69
2023/01/25 00:38:37;;;;;;;691.83;653.28;;;1.70;99.90;;;;;;5095594;28;20028;-68
2023/01/25 00:41:02;;;;;;;591.28;559.90;;;1.70;99.90;;;;;;5099897;28;20069;-68
2023/01/25 00:43:28;;;;;;;781.70;731.90;;;1.70;99.90;;;;;;5094274;28;20440;-69
2023/01/25 00:46:00;;;;;;;600.42;568.50;;;1.60;99.90;;;;;;5096436;28;20039;-69
2023/01/25 00:48:26;;;;;;;709.83;671.40;;;1.60;99.90;;;;;;5085298;28;20028;-69
2023/01/25 00:50:51;;;;;;;690.08;648.83;;;1.60;99.90;;;;;;5087518;28;20436;-67
2023/01/25 00:53:17;;;;;;;789.65;741.58;;;1.70;99.90;;;;;;5098442;28;20477;-69
2023/01/25 00:55:53;;;;;;;745.03;698.83;;;1.70;99.90;;;;;;5100395;28;20111;-69
2023/01/25 00:58:19;;;;;;;810.42;759.75;;;1.50;99.90;;;;;;5104776;28;20028;-68
2023/01/25 01:00:44;;;;;;;648.30;610.90;;;1.60;99.90;;;;;;5091446;28;20119;-68
2023/01/25 01:03:10;;;;;;;754.40;707.08;;;1.60;99.90;;;;;;5103012;28;20050;-69
2023/01/25 01:05:36;;;;;;;711.47;670.58;;;1.60;99.90;;;;;;5092652;28;20086;-69
2023/01/25 01:08:03;;;;;;;831.03;778.22;;;1.50;99.90;;;;;;5097799;28;20395;-69
2023/01/25 01:10:29;;;;;;;625.22;591.42;;;1.40;99.90;;;;;;5099213;28;20024;-68
2023/01/25 01:12:54;;;;;;;859.15;801.83;;;1.50;99.90;;;;;;5128559;27;20031;-68
2023/01/25 01:15:20;;;;;;;761.55;716.05;;;1.50;99.90;;;;;;5099597;28;20485;-69
2023/01/25 01:17:46;;;;;;;777.75;731.55;;;1.50;99.90;;;;;;5095180;28;20110;-69
2023/01/25 01:20:12;;;;;;;685.75;646.25;;;1.50;99.90;;;;;;5106102;28;20047;-69
2023/01/25 01:22:37;;;;;;;608.95;576.65;;;1.50;99.90;;;;;;5097872;28;20039;-68
2023/01/25 01:25:03;;;;;;;749.95;704.85;;;1.50;99.90;;;;;;5098172;28;20028;-68
2023/01/25 01:27:29;;;;;;;630.53;585.20;;;1.50;99.90;;;;;;5100879;28;20160;-68
2023/01/25 01:29:55;;;;;;;604.67;573.63;;;1.50;99.90;;;;;;5092574;28;20738;-69
2023/01/25 01:32:20;;;;;;;727.35;683.35;;;1.50;99.90;;;;;;5104075;28;20076;-69
2023/01/25 01:34:46;;;;;;;754.17;707.08;;;1.50;99.90;;;;;;5096262;28;20020;-69
2023/01/25 01:37:11;;;;;;;607.60;575.65;;;1.50;99.90;;;;;;5093866;28;20413;-69
2023/01/25 01:39:37;;;;;;;764.17;719.53;;;1.50;99.90;;;;;;5093091;28;20111;-69
2023/01/25 01:42:03;;;;;;;814.40;765.08;;;1.50;99.90;;;;;;5095129;28;20036;-69
2023/01/25 01:44:53;;;;;;;588.63;556.95;;;1.50;99.90;;;;;;5099667;28;20039;-68
2023/01/25 01:47:27;;;;;;;694.35;654.20;;;1.50;99.90;;;;;;5093624;28;20385;-69
2023/01/25 01:49:58;;;;;;;720.00;678.13;;;1.50;99.90;;;;;;5096915;28;20485;-68
2023/01/25 01:52:29;;;;;;;681.08;642.13;;;1.50;99.90;;;;;;5089750;28;20028;-69
2023/01/25 01:54:59;;;;;;;665.60;628.95;;;1.40;99.90;;;;;;5095618;28;20045;-68
2023/01/25 01:57:40;;;;;;;705.65;667.92;;;1.40;99.90;;;;;;5096450;28;20032;-69
2023/01/25 02:00:16;;;;;;;550.25;523.63;;;1.30;99.90;;;;;;5099958;28;20592;-69
2023/01/25 02:02:41;;;;;;;707.75;667.08;;;1.20;99.90;;;;;;5097922;28;20116;-69
2023/01/25 02:05:13;;;;;;;756.72;713.40;;;1.40;99.90;;;;;;5096633;28;20102;-69
2023/01/25 02:07:39;;;;;;;546.72;518.38;;;1.40;99.90;;;;;;5081605;28;20043;-70
2023/01/25 02:10:09;;;;;;;652.75;612.65;;;1.50;99.90;;;;;;5094071;28;20027;-69
2023/01/25 02:12:36;;;;;;;703.45;661.75;;;1.50;99.90;;;;;;5101442;28;20471;-70
2023/01/25 02:15:03;;;;;;;670.88;632.90;;;1.50;99.90;;;;;;5094575;28;20020;-69
2023/01/25 02:17:33;;;;;;;738.33;694.58;;;1.50;99.90;;;;;;5100060;28;20041;-68
2023/01/25 02:20:23;;;;;;;948.55;669.85;;;1.50;99.90;;;;;;5094754;28;20040;-69
2023/01/25 02:23:13;;;;;;;677.22;638.88;;;1.30;99.90;;;;;;5096758;28;20043;-69
2023/01/25 02:25:40;;;;;;;550.87;521.80;;;1.30;99.90;;;;;;5096077;28;20052;-72
2023/01/25 02:28:41;;;;;;;579.78;546.00;;;1.40;99.90;;;;;;5096724;28;20815;-69
2023/01/25 02:31:06;;;;;;;;;;;1.40;99.90;;;;;;5080480;28;20073;-69
2023/01/25 02:33:32;;;;;;;417.95;399.38;;;1.40;99.90;;;;;;5090846;28;19963;-69
2023/01/25 02:36:07;;;;;;;551.15;523.22;;;1.50;99.90;;;;;;5092829;28;20084;-69
2023/01/25 02:38:36;;;;;;;571.22;541.33;;;1.40;99.90;;;;;;5091990;28;20024;-69
2023/01/25 02:41:16;;;;;;;539.30;512.20;;;1.50;99.90;;;;;;5098104;28;20442;-68
2023/01/25 02:43:42;;;;;;;770.88;724.28;;;1.40;99.90;;;;;;5097265;28;21332;-69
2023/01/25 02:46:14;;;;;;;702.65;661.83;;;1.40;99.90;;;;;;5096173;28;20029;-69
2023/01/25 02:48:40;;;;;;;739.42;696.25;;;1.30;99.90;;;;;;5093683;28;20016;-69
2023/01/25 02:51:07;;;;;;;753.13;701.58;;;1.30;99.90;;;;;;5092152;28;20452;-70
2023/01/25 02:53:32;;;;;;;794.03;746.08;;;1.30;99.90;;;;;;5100622;28;20439;-69
2023/01/25 02:55:58;;;;;;;827.42;774.90;;;1.40;99.90;;;;;;5094082;28;20078;-69
2023/01/25 02:58:24;;;;;;;726.95;684.35;;;1.40;99.90;;;;;;5100986;28;20126;-69
2023/01/25 03:00:49;;;;;;;833.53;781.53;;;1.50;99.90;;;;;;5100683;28;20027;-69
2023/01/25 03:03:15;;;;;;;778.70;728.63;;;1.50;99.90;;;;;;5103965;28;20497;-68
2023/01/25 03:05:41;;;;;;;781.60;730.28;;;1.40;99.90;;;;;;5102410;28;20505;-69
2023/01/25 03:08:06;;;;;;;579.88;550.85;;;1.40;99.90;;;;;;5094574;28;20040;-69
2023/01/25 03:10:32;;;;;;;739.15;694.67;;;1.20;99.90;;;;;;5104043;28;20032;-69
2023/01/25 03:12:57;;;;;;;712.33;670.33;;;1.20;99.90;;;;;;5093901;28;20048;-69
2023/01/25 03:15:23;;;;;;;800.00;751.70;;;1.40;99.90;;;;;;5099804;28;20128;-69
2023/01/25 03:17:49;;;;;;;594.08;561.15;;;1.40;99.90;;;;;;5102297;28;20039;-69
2023/01/25 03:20:15;;;;;;;684.95;642.63;;;1.50;99.90;;;;;;5102601;28;20505;-69
2023/01/25 03:22:40;;;;;;;842.22;788.35;;;1.50;99.90;;;;;;5101190;28;20490;-69
2023/01/25 03:25:06;;;;;;;716.15;672.60;;;1.50;99.90;;;;;;5097770;28;20567;-68
2023/01/25 03:27:32;;;;;;;769.17;724.40;;;1.50;99.90;;;;;;5095092;28;20558;-69
2023/01/25 03:29:58;;;;;;;682.65;643.75;;;1.40;99.90;;;;;;5094502;28;20028;-70
2023/01/25 03:32:23;;;;;;;861.65;804.75;;;1.50;99.90;;;;;;5090800;28;20032;-69
2023/01/25 03:34:49;;;;;;;717.42;674.67;;;1.50;99.90;;;;;;5101579;28;20104;-68
2023/01/25 03:37:14;;;;;;;788.67;740.15;;;1.50;99.90;;;;;;5097679;28;20043;-69
2023/01/25 03:39:40;;;;;;;740.58;686.80;;;1.30;99.90;;;;;;5095859;28;20042;-68
2023/01/25 03:42:06;;;;;;;628.28;593.97;;;1.20;99.90;;;;;;5096205;28;20155;-69
2023/01/25 03:44:31;;;;;;;572.13;543.08;;;1.20;99.90;;;;;;5099127;28;20042;-69
2023/01/25 03:46:57;;;;;;;689.53;649.92;;;1.30;99.90;;;;;;5098868;28;20390;-69
2023/01/25 03:49:23;;;;;;;820.58;769.45;;;1.30;99.90;;;;;;5099816;28;20093;-69
2023/01/25 03:51:48;;;;;;;594.65;558.80;;;1.40;99.90;;;;;;5096288;28;20139;-68
2023/01/25 03:54:14;;;;;;;596.85;563.70;;;1.40;99.90;;;;;;5096173;28;20121;-69
2023/01/25 03:56:40;;;;;;;717.85;672.75;;;1.40;99.90;;;;;;5106186;28;20028;-69
2023/01/25 03:59:05;;;;;;;641.78;602.50;;;1.40;99.90;;;;;;5096245;28;20741;-69
2023/01/25 04:01:31;;;;;;;728.63;685.30;;;1.30;99.90;;;;;;5103100;28;20042;-69
2023/01/25 04:03:57;;;;;;;749.10;704.92;;;1.20;99.90;;;;;;5100570;28;20069;-70
2023/01/25 04:06:22;;;;;;;701.13;649.53;;;1.20;99.90;;;;;;5095411;28;20038;-69
2023/01/25 04:08:48;;;;;;;706.42;660.63;;;1.40;99.90;;;;;;5102400;28;20822;-68
2023/01/25 04:11:13;;;;;;;786.17;736.05;;;1.30;99.90;;;;;;5094372;28;20058;-69
2023/01/25 04:13:39;;;;;;;700.35;655.63;;;1.40;99.90;;;;;;5096750;28;20093;-69
2023/01/25 04:16:07;;;;;;;805.22;753.05;;;1.40;99.90;;;;;;5096092;28;20522;-68
2023/01/25 04:18:33;;;;;;;783.22;730.10;;;1.50;99.90;;;;;;5091521;28;20516;-69
2023/01/25 04:20:58;;;;;;;786.40;736.45;;;1.40;99.90;;;;;;5100757;28;20076;-69
2023/01/25 04:23:25;;;;;;;699.35;655.03;;;1.30;99.90;;;;;;5092247;28;20107;-69
2023/01/25 04:25:59;;;;;;;742.83;696.90;;;1.20;99.90;;;;;;5097955;28;20036;-69
2023/01/25 04:28:26;;;;;;;721.30;678.13;;;1.30;99.90;;;;;;5094090;28;20050;-69
2023/01/25 04:30:54;;;;;;;758.97;713.05;;;1.40;99.90;;;;;;5096307;28;20063;-69
2023/01/25 04:33:19;;;;;;;821.90;770.75;;;1.50;99.90;;;;;;5090607;28;20034;-69
2023/01/25 04:35:45;;;;;;;806.50;755.92;;;1.50;99.90;;;;;;5094949;28;20466;-69
2023/01/25 04:38:11;;;;;;;761.47;717.30;;;1.40;99.90;;;;;;5092898;28;20560;-69
2023/01/25 04:40:37;;;;;;;714.13;673.15;;;1.40;99.90;;;;;;5091470;28;20501;-68
2023/01/25 04:43:05;;;;;;;604.22;574.40;;;1.30;99.90;;;;;;5105840;28;20032;-68
2023/01/25 04:45:31;;;;;;;621.85;590.03;;;1.10;99.90;;;;;;5100136;28;20084;-69
2023/01/25 04:48:00;;;;;;;729.90;686.40;;;1.20;99.90;;;;;;5097200;28;20032;-69
2023/01/25 04:50:26;;;;;;;679.53;642.22;;;1.30;99.90;;;;;;5099854;28;20020;-68
2023/01/25 04:52:52;;;;;;;695.05;654.35;;;1.30;99.90;;;;;;5099822;28;20147;-69
2023/01/25 04:55:18;;;;;;;853.08;799.03;;;1.30;99.90;;;;;;5093538;28;20027;-69
2023/01/25 04:57:43;;;;;;;759.30;715.25;;;1.20;99.90;;;;;;5094801;28;20394;-69
2023/01/25 05:00:10;;;;;;;558.72;529.50;;;1.30;99.90;;;;;;5104189;28;20063;-69
2023/01/25 05:02:38;;;;;;;454.05;432.83;;;1.30;99.90;;;;;;5095918;28;20699;-69
2023/01/25 05:05:04;;;;;;;667.00;629.92;;;1.10;99.90;;;;;;5100061;28;20042;-69
2023/01/25 05:07:29;;;;;;;732.53;690.20;;;1.10;99.90;;;;;;5101741;28;20028;-69
2023/01/25 05:09:55;;;;;;;687.00;649.33;;;1.10;99.90;;;;;;5092051;28;20092;-69
2023/01/25 05:12:21;;;;;;;700.60;660.17;;;1.10;99.90;;;;;;5093789;28;20036;-69
2023/01/25 05:14:46;;;;;;;762.63;716.75;;;1.20;99.90;;;;;;5084190;28;20027;-68
2023/01/25 05:17:12;;;;;;;838.50;784.50;;;1.30;99.90;;;;;;5086540;28;20036;-68
2023/01/25 05:19:37;;;;;;;699.97;658.65;;;1.40;99.90;;;;;;5088386;28;20024;-70
2023/01/25 05:22:06;;;;;;;733.75;690.40;;;1.30;99.90;;;;;;5092736;28;20481;-75
2023/01/25 05:24:33;;;;;;;714.13;672.10;;;1.30;99.90;;;;;;5094442;28;20074;-71
2023/01/25 05:27:02;;;;;;;434.77;415.85;;;1.30;99.90;;;;;;5084538;28;20032;-71
2023/01/25 05:29:39;;;;;;;742.88;699.97;;;1.50;99.90;;;;;;5100785;28;20035;-70
2023/01/25 05:32:17;;;;;;;650.25;605.38;;;1.40;99.90;;;;;;5092109;28;20032;-68
2023/01/25 05:34:43;;;;;;;731.95;689.55;;;1.20;99.90;;;;;;5103003;28;20027;-68
2023/01/25 05:37:12;;;;;;;1282.13;763.97;;;1.30;99.90;;;;;;5088935;28;20521;-68
2023/01/25 05:39:37;;;;;;;496.90;472.92;;;1.10;99.90;;;;;;5097939;28;20035;-68
2023/01/25 05:42:07;;;;;;;702.33;663.20;;;1.20;99.90;;;;;;5093704;28;20040;-69
2023/01/25 05:44:33;;;;;;;613.97;582.07;;;1.20;99.90;;;;;;5097406;28;20080;-68
2023/01/25 05:47:00;;;;;;;616.13;581.38;;;1.10;99.90;;;;;;5100573;28;20775;-68
2023/01/25 05:49:25;;;;;;;661.42;621.17;;;1.00;99.90;;;;;;5093138;28;20057;-67
2023/01/25 05:51:51;;;;;;;971.53;694.78;;;1.10;99.90;;;;;;5097107;28;20032;-68
2023/01/25 05:54:18;;;;;;;690.38;645.60;;;1.10;99.90;;;;;;5099282;28;20035;-67
2023/01/25 05:56:44;;;;;;;668.33;629.50;;;1.10;99.90;;;;;;5091268;28;20031;-68
2023/01/25 05:59:11;;;;;;;617.88;583.10;;;1.10;99.90;;;;;;5090158;28;20050;-67
2023/01/25 06:01:36;;;;;;;783.33;732.38;;;1.20;99.90;;;;;;5081211;28;20032;-67
2023/01/25 06:04:02;;;;;;;785.25;738.03;;;1.20;99.90;;;;;;5085163;28;20650;-67
2023/01/25 06:06:28;;;;;;;796.60;748.47;;;1.20;99.90;;;;;;5094506;28;20401;-67
2023/01/25 06:08:53;;;;;;;677.65;640.15;;;1.10;99.90;;;;;;5098919;28;20035;-68
2023/01/25 06:11:21;;;;;;;680.17;640.42;;;1.10;99.90;;;;;;5098236;28;20020;-67
2023/01/25 06:13:47;;;;;;;641.38;606.00;;;1.00;99.90;;;;;;5095870;28;20551;-67
2023/01/25 06:16:14;;;;;;;749.00;706.38;;;1.10;99.90;;;;;;5098443;28;20413;-67
2023/01/25 06:18:40;;;;;;;615.50;583.05;;;1.10;99.90;;;;;;5095829;28;20070;-68
2023/01/25 06:21:06;;;;;;;642.53;599.75;;;1.10;99.90;;;;;;5098580;28;20055;-68
2023/01/25 06:23:32;;;;;;;677.63;628.17;;;1.00;99.90;;;;;;5093814;28;20489;-67
2023/01/25 06:25:59;;;;;;;705.45;650.40;;;1.00;99.90;;;;;;5092402;28;20085;-70
2023/01/25 06:28:25;;;;;;;771.10;725.25;;;0.90;99.90;;;;;;5094280;28;20091;-72
2023/01/25 06:30:51;;;;;;;770.20;723.72;;;0.90;99.90;;;;;;5093357;28;20473;-71
2023/01/25 06:33:16;;;;;;;780.72;733.85;;;1.00;99.90;;;;;;5097550;28;20119;-71
2023/01/25 06:35:42;;;;;;;708.92;665.40;;;1.00;99.90;;;;;;5085569;28;20032;-73
2023/01/25 06:38:08;;;;;;;712.67;670.10;;;1.00;99.90;;;;;;5099183;28;20494;-71
2023/01/25 06:40:34;;;;;;;781.20;733.88;;;1.00;99.90;;;;;;5099611;28;20393;-70
2023/01/25 06:43:10;;;;;;;787.47;739.58;;;1.00;99.90;;;;;;5099745;28;20028;-71
2023/01/25 06:45:36;;;;;;;733.47;688.72;;;1.10;99.90;;;;;;5103630;28;20078;-71
2023/01/25 06:48:02;;;;;;;724.05;680.70;;;1.10;99.90;;;;;;5091401;28;20402;-71
2023/01/25 06:50:28;;;;;;;538.22;511.52;;;1.00;99.90;;;;;;5080127;28;20775;-74
2023/01/25 06:52:54;;;;;;;669.22;631.67;;;1.00;99.90;;;;;;5079459;28;20058;-74
2023/01/25 06:55:21;;;;;;;632.78;599.38;;;1.10;99.90;;;;;;5099839;28;20397;-74
2023/01/25 06:57:47;;;;;;;653.67;618.08;;;0.90;99.90;;;;;;5102532;28;20028;-74
2023/01/25 07:00:14;;;;;;;551.03;522.70;;;0.90;99.90;;;;;;5096318;28;20042;-74
2023/01/25 07:02:40;;;;;;;617.47;583.17;;;0.90;99.90;;;;;;5097767;28;20581;-74
2023/01/25 07:05:06;;;;;;;618.40;584.50;;;0.80;99.90;;;;;;5094899;28;20135;-74
2023/01/25 07:07:31;;;;;;;640.88;607.75;;;0.80;99.90;;;;;;5098682;28;20036;-75
2023/01/25 07:09:59;;;;;;;577.60;549.28;;;0.80;99.90;;;;;;5083581;28;20444;-75
2023/01/25 07:12:25;;;;;;;512.83;488.95;;;0.70;99.90;;;;;;5095241;28;20385;-75
2023/01/25 07:14:51;;;;;;;616.00;583.97;;;0.70;99.90;;;;;;5095677;28;20364;-75
2023/01/25 07:17:16;;;;;;;549.45;522.80;;;0.70;99.90;;;;;;5092834;28;20039;-75
2023/01/25 07:19:42;;;;;;;543.97;513.30;;;0.70;99.90;;;;;;5088694;28;20063;-75
2023/01/25 07:22:08;;;;;;;636.60;601.67;;;0.70;99.90;;;;;;5088137;28;20043;-75
2023/01/25 07:24:33;;;;;;;633.35;597.17;;;0.60;99.90;;;;;;5104851;27;20084;-75
2023/01/25 07:26:59;;;;;;;548.10;521.50;;;0.70;99.90;;;;;;5100571;28;20520;-75
2023/01/25 07:29:25;;;;;;;618.92;584.80;;;0.70;99.90;;;;;;5096760;28;20106;-75
2023/01/25 07:31:50;;;;;;;551.08;520.50;;;0.70;99.90;;;;;;5103696;28;20047;-75
2023/01/25 07:34:16;;;;;;;660.00;624.33;;;0.70;99.90;;;;;;5101384;28;20028;-75
2023/01/25 07:36:45;;;;;;;429.90;409.27;;;0.70;99.90;;;;;;5107155;28;20648;-75
2023/01/25 07:39:12;;;;;;;716.83;676.50;;;0.70;99.90;;;;;;5092130;28;20062;-75
2023/01/25 07:41:38;;;;;;;464.35;442.23;;;0.70;99.90;;;;;;5100986;28;20629;-75
2023/01/25 07:44:04;;;;;;;534.75;509.75;;;0.60;99.90;;;;;;5097012;28;20028;-75
2023/01/25 07:46:29;;;;;;;493.48;469.73;;;0.60;99.90;;;;;;5096626;28;20030;-75
2023/01/25 07:48:57;;;;;;;521.33;494.23;;;0.60;99.90;;;;;;5103285;28;20038;-75
2023/01/25 07:51:28;;;;;;;410.92;392.98;;;0.60;99.90;;;;;;5093475;28;20035;-75
2023/01/25 07:53:56;;;;;;;621.40;587.45;;;0.70;99.90;;;;;;5103704;28;20085;-75
2023/01/25 07:56:25;;;;;;;638.45;602.47;;;0.70;99.90;;;;;;5096484;28;20525;-75
2023/01/25 07:58:53;;;;;;;325.27;312.67;;;0.60;99.90;;;;;;5104537;28;20032;-75
2023/01/25 08:01:21;;;;;;;444.13;421.42;;;0.70;99.90;;;;;;5093449;28;20595;-75
2023/01/25 08:03:47;;;;;;;487.58;465.38;;;0.70;99.90;;;;;;5097001;28;20108;-76
2023/01/25 08:06:13;;;;;;;640.92;605.55;;;0.60;99.90;;;;;;5106441;28;20038;-76
2023/01/25 08:08:44;;;;;;;426.45;408.27;;;0.60;99.90;;;;;;5093833;28;20032;-75
2023/01/25 08:11:13;;;;;;;521.97;494.65;;;0.60;99.90;;;;;;5098047;28;20118;-75
2023/01/25 08:13:40;;;;;;;524.33;499.15;;;0.60;99.90;;;;;;5098422;28;20028;-76
2023/01/25 08:16:06;;;;;;;521.22;495.92;;;0.70;99.90;;;;;;5103035;28;20460;-75
2023/01/25 08:18:32;;;;;;;540.65;512.83;;;0.70;99.90;;;;;;5099562;28;20062;-76
2023/01/25 08:20:59;;;;;;;463.10;442.60;;;0.70;99.90;;;;;;5094323;28;20039;-75
2023/01/25 08:23:26;;;;;;;442.30;422.30;;;0.70;99.90;;;;;;5099695;28;20144;-75
2023/01/25 08:25:52;;;;;;;418.35;399.98;;;0.70;99.90;;;;;;5091740;28;20032;-75
2023/01/25 08:28:17;;;;;;;360.45;346.02;;;0.70;99.90;;;;;;5103317;28;20044;-76
2023/01/25 08:30:43;;;;;;;379.35;363.30;;;0.60;99.90;;;;;;5098293;28;20032;-75
2023/01/25 08:33:09;;;;;;;540.05;501.23;;;0.70;99.90;;;;;;5098064;28;20038;-75
2023/01/25 08:35:35;;;;;;;390.50;374.27;;;0.50;99.90;;;;;;5095928;28;20115;-76
2023/01/25 08:38:02;;;;;;;490.73;465.58;;;0.50;99.90;;;;;;5095461;28;20032;-75
2023/01/25 08:40:27;;;;;;;525.50;500.23;;;0.50;99.90;;;;;;5099902;28;20450;-76
2023/01/25 08:42:53;;;;;;;428.27;409.95;;;0.50;99.90;;;;;;5096494;28;20107;-75
2023/01/25 08:45:19;;;;;;;410.75;393.70;;;0.50;99.90;;;;;;5099564;28;20390;-75
2023/01/25 08:47:44;;;;;;;352.48;338.13;;;0.50;99.90;;;;;;5094205;28;20032;-75
2023/01/25 08:50:10;;;;;;;395.98;379.63;;;0.60;99.90;;;;;;5095410;28;20493;-75
2023/01/25 08:52:36;;;;;;;389.20;373.25;;;0.60;99.90;;;;;;5093989;28;20051;-75
2023/01/25 08:55:02;;;;;;;367.20;351.80;;;0.60;99.90;;;;;;5096295;28;20129;-75
2023/01/25 08:57:27;;;;;;;384.60;368.40;;;0.50;99.90;;;;;;5105445;28;20426;-75
2023/01/25 08:59:53;;;;;;;375.90;359.55;;;0.50;99.90;;;;;;5097397;28;20027;-75
2023/01/25 09:02:20;;;;;;;389.65;373.08;;;0.60;99.90;;;;;;5099567;28;20547;-75
2023/01/25 09:04:46;;;;;;;360.10;344.83;;;0.60;99.90;;;;;;5096410;28;20028;-75
2023/01/25 09:07:12;;;;;;;358.13;343.27;;;0.60;99.90;;;;;;5094438;28;20584;-75
2023/01/25 09:09:37;;;;;;;376.90;361.67;;;0.60;99.90;;;;;;5101091;28;20016;-75
2023/01/25 09:12:03;;;;;;;391.85;375.65;;;0.60;99.90;;;;;;5092913;28;20032;-76
2023/01/25 09:14:29;;;;;;;391.52;375.00;;;0.50;99.90;;;;;;5117981;27;20073;-75
2023/01/25 09:16:54;;;;;;;607.67;569.05;;;0.60;99.90;;;;;;5098090;28;20396;-75
2023/01/25 09:19:20;;;;;;;441.42;420.58;;;0.60;99.90;;;;;;5099847;28;20501;-75
2023/01/25 09:21:47;;;;;;;395.42;378.83;;;0.60;99.90;;;;;;5096788;28;20063;-75
2023/01/25 09:24:13;;;;;;;367.63;352.60;;;0.60;99.90;;;;;;5094888;28;20046;-75
2023/01/25 09:26:40;;;;;;;419.05;397.95;;;0.60;99.90;;;;;;5101602;28;20032;-75
2023/01/25 09:29:07;;;;;;;411.30;393.20;;;0.60;99.90;;;;;;5093223;28;20044;-75
2023/01/25 09:31:33;;;;;;;407.25;389.02;;;0.60;99.90;;;;;;5095884;28;20062;-75
2023/01/25 09:33:59;;;;;;;369.38;354.58;;;0.60;99.90;;;;;;5098729;28;20423;-75
2023/01/25 09:36:25;;;;;;;311.20;298.30;;;0.60;99.90;;;;;;5098567;28;20532;-75
2023/01/25 09:38:50;;;;;;;399.58;381.55;;;0.70;99.90;;;;;;5100357;28;20028;-75
2023/01/25 09:41:46;;;;;;;414.48;395.63;;;0.70;99.90;;;;;;5094534;28;20107;-75
2023/01/25 09:45:00;;;;;;;418.92;399.67;;;0.70;99.90;;;;;;5102238;28;20107;-77
2023/01/25 09:47:31;;;;;;;286.95;275.38;;;0.70;99.90;;;;;;5075003;28;20043;-77
2023/01/25 09:50:10;;;;;;;313.58;301.23;;;0.60;99.90;;;;;;5102208;28;20027;-78
2023/01/25 09:53:23;;;;;;;246.75;236.07;;;0.60;99.90;;;;;;5120371;27;20039;-77
2023/01/25 09:55:54;;;;;;;320.40;307.50;;;0.60;99.90;;;;;;5038100;28;20028;-76
2023/01/25 09:58:27;;;;;;;290.08;278.30;;;0.60;99.90;;;;;;5010940;28;20116;-77
2023/01/25 10:01:24;;;;;;;380.52;363.48;;;0.60;99.90;;;;;;5067899;28;20035;-77
2023/01/25 10:03:55;;;;;;;324.42;311.35;;;0.60;99.90;;;;;;5082129;28;20398;-77
2023/01/25 10:06:48;;;;;;;312.13;299.50;;;0.70;99.90;;;;;;5090090;28;20027;-77
2023/01/25 10:09:50;;;;;;;176.60;169.77;;;0.70;99.90;;;;;;5097098;28;20028;-75
2023/01/25 10:12:24;;;;;;;286.15;274.98;;;0.70;99.90;;;;;;5105594;28;20024;-77
2023/01/25 10:14:50;;;;;;;354.10;339.60;;;0.70;99.90;;;;;;5095779;28;20048;-77
2023/01/25 10:17:35;;;;;;;311.70;298.30;;;0.50;99.90;;;;;;5099502;28;20036;-77
2023/01/25 10:20:19;;;;;;;386.02;367.70;;;0.70;99.90;;;;;;5080881;28;20544;-78
2023/01/25 10:22:51;;;;;;;343.55;328.65;;;0.70;99.90;;;;;;5098451;28;20027;-78
2023/01/25 10:25:40;;;;;;;406.73;387.92;;;0.70;99.90;;;;;;5099961;28;20043;-77
2023/01/25 10:28:20;;;;;;;330.98;315.95;;;0.70;99.90;;;;;;5098610;28;20047;-78
2023/01/25 10:30:52;;;;;;;287.48;276.10;;;0.70;99.90;;;;;;5103913;28;20036;-75
2023/01/25 10:33:19;;;;;;;376.23;359.73;;;0.70;99.90;;;;;;5097376;28;20111;-76
2023/01/25 10:35:47;;;;;;;323.65;310.30;;;0.60;99.90;;;;;;5102116;28;20416;-75
2023/01/25 10:38:44;;;;;;;398.45;382.02;;;0.60;99.90;;;;;;5094127;28;20114;-75
2023/01/25 10:41:16;;;;;;;276.15;265.05;;;0.60;99.90;;;;;;5099909;28;20040;-75
2023/01/25 10:43:41;;;;;;;336.13;320.48;;;0.70;99.90;;;;;;5097430;28;20035;-75
2023/01/25 10:46:19;;;;;;;350.52;335.08;;;0.70;99.90;;;;;;5101310;28;20036;-75
2023/01/25 10:48:44;;;;;;;340.52;326.15;;;0.70;99.90;;;;;;5102109;28;20024;-76
2023/01/25 10:51:31;;;;;;;363.25;348.00;;;0.70;99.90;;;;;;5100078;28;20038;-75
2023/01/25 10:54:04;;;;;;;333.67;320.15;;;0.70;99.90;;;;;;5095100;28;20077;-75
2023/01/25 10:56:34;;;;;;;294.60;283.30;;;0.80;99.90;;;;;;5106760;27;20036;-77
2023/01/25 10:59:24;;;;;;;353.42;338.55;;;0.80;99.90;;;;;;5095887;28;20069;-76
2023/01/25 11:01:50;;;;;;;328.55;314.70;;;0.80;99.90;;;;;;5096826;28;20501;-76
2023/01/25 11:04:24;;;;;;;451.52;432.30;;;0.80;99.90;;;;;;5104355;28;20056;-77
2023/01/25 11:06:51;;;;;;;333.60;320.30;;;0.80;99.90;;;;;;5097808;28;20440;-76
2023/01/25 11:09:19;;;;;;;323.60;310.15;;;0.80;99.90;;;;;;5101380;28;20030;-77
2023/01/25 11:12:17;;;;;;;225.32;216.23;;;0.90;99.90;;;;;;5104412;28;20035;-76
2023/01/25 11:14:43;;;;;;;321.02;307.98;;;0.90;99.90;;;;;;5087224;28;20040;-76
2023/01/25 11:17:25;;;;;;;314.13;302.38;;;0.70;99.90;;;;;;5102929;28;20036;-76
2023/01/25 11:20:10;;;;;;;357.38;343.00;;;0.80;99.90;;;;;;5096415;28;20024;-76
2023/01/25 11:22:36;;;;;;;271.15;259.48;;;0.80;99.90;;;;;;5101435;28;20447;-76
2023/01/25 11:25:32;;;;;;;315.75;302.38;;;0.90;99.90;;;;;;5059482;28;20036;-76
2023/01/25 11:28:15;;;;;;;322.60;310.15;;;0.90;99.90;;;;;;5088518;28;20039;-76
2023/01/25 11:30:41;;;;;;;277.83;266.63;;;0.80;99.90;;;;;;5094385;28;20032;-76
2023/01/25 11:33:14;;;;;;;329.70;315.73;;;0.80;99.90;;;;;;5096748;28;20047;-77
2023/01/25 11:36:18;;;;;;;311.80;299.27;;;0.80;99.90;;;;;;5077463;28;20032;-76
2023/01/25 11:39:13;;;;;;;262.60;251.73;;;0.80;99.90;;;;;;5092762;28;20517;-80
2023/01/25 11:42:08;;;;;;;373.80;353.63;;;0.80;99.90;;;;;;5085230;28;20047;-77
2023/01/25 11:45:08;;;;;;;250.23;239.23;;;0.70;99.90;;;;;;5027329;28;20037;-76
2023/01/25 11:47:57;;;;;;;275.35;264.17;;;0.70;99.90;;;;;;5099773;28;20038;-74
2023/01/25 11:50:46;;;;;;;315.58;302.90;;;0.70;99.90;;;;;;5104691;28;20059;-78
2023/01/25 11:53:26;;;;;;;301.70;289.75;;;0.70;99.90;;;;;;5098604;28;20027;-78
2023/01/25 11:56:14;;;;;;;291.77;280.83;;;0.70;99.90;;;;;;5096390;28;20484;-79
2023/01/25 11:58:40;;;;;;;169.40;162.00;;;0.70;99.90;;;;;;5097165;28;20047;-79
2023/01/25 12:01:32;;;;;;;294.40;281.83;;;0.70;99.90;;;;;;5101199;28;20036;-79
2023/01/25 12:04:13;;;;;;;315.02;301.35;;;0.50;99.90;;;;;;5081912;28;20039;-76
2023/01/25 12:07:11;;;;;;;260.00;249.55;;;0.60;99.90;;;;;;5088860;28;20628;-72
2023/01/25 12:09:55;;;;;;;305.52;293.05;;;0.70;99.90;;;;;;5097436;28;20097;-75
2023/01/25 12:12:29;;;;;;;178.40;170.52;;;0.60;99.90;;;;;;5097587;28;20032;-73
2023/01/25 12:14:58;;;;;;;267.27;256.42;;;0.60;99.90;;;;;;5103452;28;20401;-74
2023/01/25 12:17:38;;;;;;;285.38;269.67;;;0.60;99.90;;;;;;5091972;28;20046;-72
2023/01/25 12:20:05;;;;;;;346.92;330.33;;;0.60;99.90;;;;;;5095135;28;20052;-75
2023/01/25 12:23:00;;;;;;;292.98;280.83;;;0.50;99.90;;;;;;5089702;28;20359;-74
2023/01/25 12:25:55;;;;;;;315.85;302.27;;;0.50;99.90;;;;;;5067330;28;20035;-74
2023/01/25 12:28:32;;;;;;;287.50;275.58;;;0.50;99.90;;;;;;5094171;28;20039;-72
2023/01/25 12:31:10;;;;;;;288.33;277.02;;;0.60;99.90;;;;;;5099894;28;20029;-72
2023/01/25 12:33:41;;;;;;;322.50;309.38;;;0.60;99.90;;;;;;5091821;28;20028;-73